Time;durP1;ratioP1;P1;durP2;ratioP2;P2;SDS_P1;SDS_P2;PMS_P1;PMS_P2;Temp;Humidity;BMP_temperature;BMP_pressure;BME280_temperature;BME280_humidity;BME280_pressure;Samples;Min_cycle;Max_cycle;Signal;HPM_P1;HPM_P2
2022/06/11 00:01:23;;;;;;;;;;;10.10;99.90;;;;;;5075952;28;20338;-76
2022/06/11 00:03:51;;;;;;;;;;;10.10;99.90;;;;;;5072051;28;19916;-76
2022/06/11 00:06:16;;;;;;;;;;;10.10;99.90;;;;;;5072244;28;19916;-76
2022/06/11 00:08:43;;;;;;;;;;;10.00;99.90;;;;;;5072654;28;19919;-77
2022/06/11 00:11:09;;;;;;;;;;;9.90;99.90;;;;;;5072207;28;19908;-76
2022/06/11 00:13:35;;;;;;;;;;;9.90;99.90;;;;;;5071412;28;20362;-77
2022/06/11 00:16:01;;;;;;;;;;;9.90;99.90;;;;;;5070809;28;19956;-76
2022/06/11 00:18:27;;;;;;;;;;;10.00;99.90;;;;;;5072021;28;20317;-76
2022/06/11 00:20:52;;;;;;;;;;;10.00;99.90;;;;;;5071995;28;19995;-76
2022/06/11 00:23:18;;;;;;;;;;;9.90;99.90;;;;;;5071003;28;19995;-76
2022/06/11 00:25:43;;;;;;;;;;;9.80;99.90;;;;;;5070803;28;19991;-76
2022/06/11 00:28:09;;;;;;;;;;;9.80;99.90;;;;;;5072484;28;20006;-76
2022/06/11 00:30:35;;;;;;;;;;;9.90;99.90;;;;;;5082721;28;19947;-76
2022/06/11 00:33:00;;;;;;;;;;;9.80;99.90;;;;;;5073052;28;20380;-76
2022/06/11 00:35:26;;;;;;;;;;;9.80;99.90;;;;;;5071260;28;20005;-76
2022/06/11 00:37:53;;;;;;;;;;;9.70;99.90;;;;;;5071894;28;19935;-76
2022/06/11 00:40:23;;;;;;;;;;;9.60;99.90;;;;;;5070547;28;19979;-76
2022/06/11 00:42:49;;;;;;;;;;;9.60;99.90;;;;;;5071307;28;19909;-76
2022/06/11 00:45:17;;;;;;;;;;;9.60;99.90;;;;;;5071311;28;19951;-76
2022/06/11 00:47:44;;;;;;;;;;;9.60;99.90;;;;;;5071485;28;19916;-76
2022/06/11 00:50:37;;;;;;;;;;;9.70;99.90;;;;;;5071832;28;20493;-76
2022/06/11 00:53:05;;;;;;;;;;;9.80;99.90;;;;;;5068449;28;19916;-76
2022/06/11 00:55:32;;;;;;;;;;;9.80;99.90;;;;;;5071278;28;19913;-76
2022/06/11 00:58:02;;;;;;;;;;;9.70;99.90;;;;;;5077426;28;19908;-76
2022/06/11 01:00:41;;;;;;;;;;;9.70;99.90;;;;;;5073284;28;19910;-76
2022/06/11 01:03:10;;;;;;;;;;;9.70;99.90;;;;;;5084445;28;19908;-76
2022/06/11 01:05:38;;;;;;;;;;;9.60;99.90;;;;;;5090929;28;19915;-76
2022/06/11 01:08:14;;;;;;;;;;;9.70;99.90;;;;;;5090936;28;20365;-76
2022/06/11 01:10:58;;;;;;;;;;;9.50;99.90;;;;;;5090843;28;19920;-76
2022/06/11 01:13:31;;;;;;;;;;;9.50;99.90;;;;;;5090034;28;21080;-76
2022/06/11 01:16:08;;;;;;;;;;;9.60;99.90;;;;;;5089451;28;19912;-76
2022/06/11 01:18:51;;;;;;;;;;;9.60;99.90;;;;;;5089398;28;19915;-76
2022/06/11 01:21:17;;;;;;;;;;;9.60;99.90;;;;;;5090125;28;19912;-76
2022/06/11 01:23:48;;;;;;;;;;;9.60;99.90;;;;;;5090308;28;19931;-77
2022/06/11 01:26:17;;;;;;;;;;;9.50;99.90;;;;;;5090787;28;20302;-76
2022/06/11 01:28:49;;;;;;;;;;;9.50;99.90;;;;;;5083701;28;19913;-76
2022/06/11 01:31:27;;;;;;;;;;;9.50;99.90;;;;;;5076013;28;20301;-76
2022/06/11 01:34:22;;;;;;;;;;;9.50;99.90;;;;;;5070709;28;20334;-76
2022/06/11 01:36:49;;;;;;;;;;;9.40;99.90;;;;;;5073276;28;20389;-76
2022/06/11 01:39:17;;;;;;;;;;;9.40;99.90;;;;;;5090660;28;19959;-76
2022/06/11 01:42:01;;;;;;;;;;;9.30;99.90;;;;;;5090179;28;19915;-76
2022/06/11 01:44:28;;;;;;;;;;;9.30;99.90;;;;;;5089777;28;19912;-76
2022/06/11 01:46:55;;;;;;;;;;;9.30;99.90;;;;;;5090425;28;19915;-76
2022/06/11 01:49:20;;;;;;;;;;;9.30;99.90;;;;;;5092031;28;20457;-76
2022/06/11 01:52:04;;;;;;;;;;;9.20;99.90;;;;;;5094041;28;20003;-75
2022/06/11 01:54:48;;;;;;;;;;;9.20;99.90;;;;;;5073828;28;19987;-76
2022/06/11 01:57:19;;;;;;;;;;;9.10;99.90;;;;;;5090878;28;19912;-76
2022/06/11 01:59:45;;;;;;;;;;;9.10;99.90;;;;;;5082784;28;20007;-76
2022/06/11 02:02:14;;;;;;;;;;;9.10;99.90;;;;;;5081426;28;19954;-76
2022/06/11 02:04:47;;;;;;;;;;;9.10;99.90;;;;;;5072694;28;19943;-76
2022/06/11 02:07:18;;;;;;;;;;;9.10;99.90;;;;;;5074705;28;19920;-76
2022/06/11 02:09:47;;;;;;;;;;;9.00;99.90;;;;;;5074729;28;19995;-76
2022/06/11 02:12:23;;;;;;;;;;;8.90;99.90;;;;;;5074103;28;19936;-76
2022/06/11 02:15:09;;;;;;;;;;;9.00;99.90;;;;;;5073841;28;19908;-76
2022/06/11 02:17:37;;;;;;;;;;;9.00;99.90;;;;;;5087829;28;19957;-76
2022/06/11 02:20:06;;;;;;;;;;;9.00;99.90;;;;;;5093981;28;19908;-76
2022/06/11 02:22:52;;;;;;;;;;;8.90;99.90;;;;;;5093307;28;19925;-76
2022/06/11 02:25:24;;;;;;;;;;;8.80;99.90;;;;;;5093071;28;20387;-76
2022/06/11 02:27:52;;;;;;;;;;;8.80;99.90;;;;;;5089082;28;19908;-76
2022/06/11 02:30:20;;;;;;;;;;;9.00;99.90;;;;;;5078051;28;20411;-76
2022/06/11 02:32:46;;;;;;;;;;;8.90;99.90;;;;;;5073613;28;19915;-76
2022/06/11 02:35:13;;;;;;;;;;;9.00;99.90;;;;;;5073408;28;19912;-76
2022/06/11 02:37:40;;;;;;;;;;;8.90;99.90;;;;;;5074238;28;19909;-77
2022/06/11 02:40:15;;;;;;;;;;;8.90;99.90;;;;;;5078529;28;19915;-76
2022/06/11 02:42:41;;;;;;;;;;;8.80;99.90;;;;;;5073519;28;19917;-76
2022/06/11 02:45:07;;;;;;;;;;;8.80;99.90;;;;;;5073325;28;19954;-76
2022/06/11 02:47:33;;;;;;;;;;;8.90;99.90;;;;;;5073887;28;20616;-76
2022/06/11 02:49:58;;;;;;;;;;;8.90;99.90;;;;;;5074134;28;19915;-76
2022/06/11 02:52:24;;;;;;;;;;;8.80;99.90;;;;;;5073396;28;20078;-76
2022/06/11 02:54:50;;;;;;;;;;;8.90;99.90;;;;;;5074038;28;20278;-76
2022/06/11 02:57:17;;;;;;;;;;;8.90;99.90;;;;;;5073726;28;19919;-76
2022/06/11 02:59:44;;;;;;;;;;;8.90;99.90;;;;;;5082119;28;19947;-76
2022/06/11 03:02:10;;;;;;;;;;;8.80;99.90;;;;;;5074007;28;19908;-76
2022/06/11 03:04:36;;;;;;;;;;;8.70;99.90;;;;;;5072912;28;20285;-76
2022/06/11 03:07:01;;;;;;;;;;;8.70;99.90;;;;;;5073709;28;19916;-76
2022/06/11 03:09:29;;;;;;;;;;;8.60;99.90;;;;;;5073589;28;20601;-76
2022/06/11 03:11:54;;;;;;;;;;;8.50;99.90;;;;;;5073091;28;19908;-76
2022/06/11 03:14:20;;;;;;;;;;;8.50;99.90;;;;;;5072650;28;20046;-76
2022/06/11 03:16:46;;;;;;;;;;;8.60;99.90;;;;;;5073176;28;19919;-76
2022/06/11 03:19:11;;;;;;;;;;;8.60;99.90;;;;;;5073494;28;19909;-76
2022/06/11 03:21:37;;;;;;;;;;;8.70;99.90;;;;;;5071723;28;20005;-76
2022/06/11 03:24:03;;;;;;;;;;;8.60;99.90;;;;;;5072398;28;19913;-76
2022/06/11 03:26:28;;;;;;;;;;;8.50;99.90;;;;;;5073275;28;19915;-76
2022/06/11 03:28:54;;;;;;;;;;;8.40;99.90;;;;;;5076169;28;19970;-76
2022/06/11 03:31:20;;;;;;;;;;;8.40;99.90;;;;;;5084250;28;19948;-76
2022/06/11 03:33:45;;;;;;;;;;;8.50;99.90;;;;;;5072174;28;19916;-76
2022/06/11 03:36:12;;;;;;;;;;;8.60;99.90;;;;;;5071811;28;20321;-76
2022/06/11 03:38:38;;;;;;;;;;;8.60;99.90;;;;;;5072918;28;19912;-76
2022/06/11 03:41:04;;;;;;;;;;;8.60;99.90;;;;;;5080854;28;19914;-76
2022/06/11 03:43:30;;;;;;;;;;;8.60;99.90;;;;;;5071710;28;19991;-76
2022/06/11 03:45:56;;;;;;;;;;;8.50;99.90;;;;;;5071552;28;19951;-76
2022/06/11 03:48:22;;;;;;;;;;;8.50;99.90;;;;;;5072516;28;19908;-76
2022/06/11 03:50:47;;;;;;;;;;;8.60;99.90;;;;;;5071783;28;19916;-76
2022/06/11 03:53:14;;;;;;;;;;;8.60;99.90;;;;;;5071257;28;20388;-76
2022/06/11 03:55:40;;;;;;;;;;;8.50;99.90;;;;;;5072502;28;20078;-76
2022/06/11 03:58:07;;;;;;;;;;;8.50;99.90;;;;;;5087803;28;20273;-76
2022/06/11 04:03:17;;;;;;;;;;;8.80;99.90;;;;;;5071255;28;19961;-76
2022/06/11 04:05:43;;;;;;;;;;;9.00;99.90;;;;;;5072286;28;19995;-76
2022/06/11 04:08:09;;;;;;;;;;;9.00;99.90;;;;;;5071186;28;20009;-76
2022/06/11 04:10:37;;;;;;;;;;;9.00;99.90;;;;;;5072245;28;19909;-76
2022/06/11 04:13:03;;;;;;;;;;;9.10;99.90;;;;;;5071449;28;19947;-76
2022/06/11 04:15:28;;;;;;;;;;;9.20;99.90;;;;;;5071470;28;19916;-76
2022/06/11 04:17:54;;;;;;;;;;;9.30;99.90;;;;;;5071987;28;19915;-76
2022/06/11 04:20:19;;;;;;;;;;;9.50;99.90;;;;;;5072031;28;19912;-76
2022/06/11 04:22:45;;;;;;;;;;;9.70;99.90;;;;;;5071443;28;19916;-76
2022/06/11 04:25:12;;;;;;;;;;;9.90;99.90;;;;;;5071477;28;19999;-76
2022/06/11 04:27:37;;;;;;;;;;;10.00;99.90;;;;;;5080418;28;19986;-76
2022/06/11 04:30:03;;;;;;;;;;;10.10;99.90;;;;;;5085165;28;19995;-76
2022/06/11 04:32:28;;;;;;;;;;;10.10;99.90;;;;;;5071042;28;19908;-76
2022/06/11 04:34:54;;;;;;;;;;;10.30;99.90;;;;;;5069623;28;19917;-76
2022/06/11 04:37:21;;;;;;;;;;;10.40;99.90;;;;;;5071913;28;19960;-76
2022/06/11 04:39:48;;;;;;;;;;;10.50;99.90;;;;;;5070657;28;19912;-76
2022/06/11 04:42:14;;;;;;;;;;;10.50;99.90;;;;;;5071383;28;19991;-76
2022/06/11 04:44:40;;;;;;;;;;;10.60;99.90;;;;;;5071075;28;19948;-76
2022/06/11 04:47:07;;;;;;;;;;;10.70;99.90;;;;;;5071677;28;19916;-76
2022/06/11 04:49:33;;;;;;;;;;;10.80;99.90;;;;;;5071522;28;19919;-76
2022/06/11 04:51:58;;;;;;;;;;;10.90;99.90;;;;;;5071246;28;19909;-76
2022/06/11 04:54:24;;;;;;;;;;;11.00;99.90;;;;;;5070879;28;19909;-76
2022/06/11 04:56:49;;;;;;;;;;;11.10;99.90;;;;;;5070400;28;20019;-76
2022/06/11 04:59:15;;;;;;;;;;;11.30;99.90;;;;;;5073040;28;19909;-76
2022/06/11 05:01:42;;;;;;;;;;;11.40;99.90;;;;;;5080032;28;20384;-76
2022/06/11 05:04:08;;;;;;;;;;;11.50;99.90;;;;;;5070423;28;19908;-76
2022/06/11 05:06:37;;;;;;;;;;;11.40;99.90;;;;;;5071526;28;19912;-76
2022/06/11 05:09:03;;;;;;;;;;;11.60;99.90;;;;;;5071195;28;19962;-76
2022/06/11 05:11:28;;;;;;;;;;;12.00;99.90;;;;;;5088291;28;20391;-76
2022/06/11 05:13:54;;;;;;;;;;;12.00;99.90;;;;;;5090223;28;19948;-76
2022/06/11 05:16:20;;;;;;;;;;;12.10;99.90;;;;;;5090813;28;19912;-76
2022/06/11 05:18:46;;;;;;;;;;;12.10;99.90;;;;;;5089295;28;20285;-76
2022/06/11 05:21:11;;;;;;;;;;;12.20;99.90;;;;;;5089342;28;19912;-76
2022/06/11 05:23:37;;;;;;;;;;;12.40;99.90;;;;;;5089781;28;19908;-76
2022/06/11 05:26:02;;;;;;;;;;;12.70;99.90;;;;;;5094926;28;20011;-76
2022/06/11 05:28:29;;;;;;;;;;;12.70;99.90;;;;;;5087553;28;19965;-77
2022/06/11 05:30:56;;;;;;;;;;;12.80;99.90;;;;;;5080437;28;19954;-77
2022/06/11 05:33:22;;;;;;;;;;;12.90;99.90;;;;;;5076212;28;20353;-76
2022/06/11 05:35:48;;;;;;;;;;;13.10;99.90;;;;;;5075064;28;20361;-76
2022/06/11 05:38:16;;;;;;;;;;;13.10;99.90;;;;;;5075343;28;19915;-75
2022/06/11 05:40:43;;;;;;;;;;;13.20;99.90;;;;;;5075206;28;19916;-76
2022/06/11 05:43:09;;;;;;;;;;;13.40;99.90;;;;;;5074110;28;20007;-76
2022/06/11 05:45:37;;;;;;;;;;;13.60;99.90;;;;;;5075086;28;20313;-76
2022/06/11 05:48:03;;;;;;;;;;;13.90;99.90;;;;;;5074827;28;19909;-76
2022/06/11 05:50:30;;;;;;;;;;;14.70;99.90;;;;;;5075020;28;19951;-76
2022/06/11 05:52:57;;;;;;;;;;;16.00;99.90;;;;;;5074258;28;19908;-75
2022/06/11 05:55:25;;;;;;;;;;;17.20;99.90;;;;;;5073427;28;19938;-76
2022/06/11 05:57:51;;;;;;;;;;;18.10;99.90;;;;;;5076378;28;20278;-76
2022/06/11 06:00:18;;;;;;;;;;;18.60;99.90;;;;;;5086522;28;20365;-76
2022/06/11 06:02:44;;;;;;;;;;;19.10;99.90;;;;;;5072312;28;19966;-76
2022/06/11 06:05:11;;;;;;;;;;;19.40;99.90;;;;;;5072688;28;19915;-76
2022/06/11 06:07:37;;;;;;;;;;;19.30;99.90;;;;;;5074611;28;19916;-76
2022/06/11 06:10:03;;;;;;;;;;;19.30;99.90;;;;;;5074562;28;19912;-76
2022/06/11 06:12:32;;;;;;;;;;;19.30;99.90;;;;;;5074395;28;19931;-76
2022/06/11 06:15:05;;;;;;;;;;;19.50;99.90;;;;;;5083454;28;20074;-76
2022/06/11 06:17:30;;;;;;;;;;;19.80;99.90;;;;;;5072767;28;20377;-76
2022/06/11 06:19:56;;;;;;;;;;;19.80;99.90;;;;;;5074362;28;19982;-76
2022/06/11 06:22:21;;;;;;;;;;;19.50;99.90;;;;;;5075185;28;19923;-78
2022/06/11 06:24:47;;;;;;;;;;;18.90;99.90;;;;;;5075230;28;19977;-78
2022/06/11 06:27:12;;;;;;;;;;;18.60;99.90;;;;;;5074614;28;20000;-77
2022/06/11 06:29:38;;;;;;;;;;;19.70;99.90;;;;;;5077528;28;20463;-77
2022/06/11 06:32:04;;;;;;;;;;;20.00;99.90;;;;;;5082334;28;19908;-77
2022/06/11 06:34:29;;;;;;;;;;;20.30;99.90;;;;;;5073083;28;19935;-77
2022/06/11 06:36:55;;;;;;;;;;;19.90;99.90;;;;;;5074093;28;20397;-76
2022/06/11 06:39:20;;;;;;;;;;;20.20;99.90;;;;;;5080710;28;19908;-77
2022/06/11 06:41:46;;;;;;;;;;;20.40;99.90;;;;;;5085250;28;20265;-77
2022/06/11 06:44:12;;;;;;;;;;;21.10;99.90;;;;;;5092625;28;19948;-77
2022/06/11 06:46:38;;;;;;;;;;;21.60;98.50;;;;;;5093454;28;19958;-76
2022/06/11 06:49:03;;;;;;;;;;;21.30;98.80;;;;;;5079310;28;19908;-77
2022/06/11 06:51:29;;;;;;;;;;;22.00;97.00;;;;;;5073419;28;19908;-77
2022/06/11 06:53:54;;;;;;;;;;;22.00;96.10;;;;;;5073106;28;19944;-75
2022/06/11 06:56:20;;;;;;;;;;;22.20;94.60;;;;;;5080162;28;19913;-76
2022/06/11 06:58:46;;;;;;;;;;;22.30;94.60;;;;;;5078326;28;19908;-77
2022/06/11 07:01:11;;;;;;;;;;;22.30;94.90;;;;;;5083105;28;19920;-76
2022/06/11 07:03:37;;;;;;;;;;;22.70;92.60;;;;;;5072086;28;19931;-76
2022/06/11 07:06:03;;;;;;;;;;;22.60;90.90;;;;;;5077861;28;20005;-75
2022/06/11 07:08:29;;;;;;;;;;;21.60;93.00;;;;;;5093040;28;19908;-75
2022/06/11 07:10:54;;;;;;;;;;;21.80;93.80;;;;;;5091632;28;20317;-75
2022/06/11 07:13:20;;;;;;;;;;;22.50;92.40;;;;;;5090597;28;19908;-75
2022/06/11 07:15:48;;;;;;;;;;;22.70;92.40;;;;;;5092890;28;19912;-75
2022/06/11 07:18:16;;;;;;;;;;;23.20;90.10;;;;;;5092459;28;19912;-75
2022/06/11 07:20:42;;;;;;;;;;;23.30;91.30;;;;;;5092634;28;19908;-76
2022/06/11 07:23:14;;;;;;;;;;;23.70;86.60;;;;;;5083952;28;20376;-76
2022/06/11 07:25:41;;;;;;;;;;;24.30;88.50;;;;;;5092440;28;19998;-75
2022/06/11 07:28:09;;;;;;;;;;;24.20;86.30;;;;;;5095685;28;20010;-76
2022/06/11 07:30:37;;;;;;;;;;;24.30;89.40;;;;;;5085710;28;19944;-76
2022/06/11 07:33:10;;;;;;;;;;;24.40;83.80;;;;;;5072432;28;19913;-76
2022/06/11 07:35:36;;;;;;;;;;;24.20;80.70;;;;;;5073021;28;20351;-76
2022/06/11 07:38:03;;;;;;;;;;;24.30;78.80;;;;;;5073023;28;19915;-76
2022/06/11 07:40:29;;;;;;;;;;;23.90;81.50;;;;;;5072805;28;19958;-76
2022/06/11 07:42:54;;;;;;;;;;;24.30;80.90;;;;;;5071101;28;19963;-76
2022/06/11 07:45:20;;;;;;;;;;;24.60;80.20;;;;;;5072384;28;19908;-76
2022/06/11 07:47:54;;;;;;;;;;;25.40;82.50;;;;;;5071829;28;19915;-76
2022/06/11 07:50:30;;;;;;;;;;;25.50;78.60;;;;;;5072565;28;19943;-76
2022/06/11 07:52:56;;;;;;;;;;;25.80;79.40;;;;;;5069700;28;19947;-76
2022/06/11 07:55:22;;;;;;;;;;;25.90;74.30;;;;;;5071318;28;19959;-76
2022/06/11 07:57:48;;;;;;;;;;;26.00;80.40;;;;;;5072014;28;20366;-76
2022/06/11 08:00:17;;;;;;;;;;;26.40;74.80;;;;;;5077638;28;19908;-76
2022/06/11 08:02:43;;;;;;;;;;;26.60;73.00;;;;;;5075969;28;19944;-76
2022/06/11 08:05:08;;;;;;;;;;;26.60;73.80;;;;;;5071691;28;19908;-76
2022/06/11 08:07:34;;;;;;;;;;;26.20;71.60;;;;;;5072193;28;19982;-76
2022/06/11 08:10:00;;;;;;;;;;;26.10;71.80;;;;;;5072190;28;19959;-76
2022/06/11 08:12:25;;;;;;;;;;;25.70;71.40;;;;;;5071785;28;20011;-76
2022/06/11 08:14:56;;;;;;;;;;;25.20;74.60;;;;;;5071541;28;20021;-76
2022/06/11 08:17:25;;;;;;;;;;;26.00;78.60;;;;;;5072075;28;20270;-76
2022/06/11 08:19:51;;;;;;;;;;;25.50;74.40;;;;;;5071636;28;19912;-76
2022/06/11 08:22:17;;;;;;;;;;;25.90;73.90;;;;;;5076422;28;20281;-76
2022/06/11 08:24:42;;;;;;;;;;;26.20;73.40;;;;;;5072620;28;19918;-76
2022/06/11 08:27:08;;;;;;;;;;;26.10;73.60;;;;;;5071979;28;19909;-76
2022/06/11 08:29:34;;;;;;;;;;;26.10;72.20;;;;;;5078640;28;19916;-76
2022/06/11 08:31:59;;;;;;;;;;;26.70;74.60;;;;;;5078933;28;19935;-76
2022/06/11 08:34:25;;;;;;;;;;;27.70;71.60;;;;;;5070931;28;20293;-76
2022/06/11 08:36:50;;;;;;;;;;;26.30;72.20;;;;;;5071532;28;19920;-76
2022/06/11 08:39:16;;;;;;;;;;;27.00;70.10;;;;;;5070449;28;19912;-76
2022/06/11 08:41:42;;;;;;;;;;;26.80;68.10;;;;;;5071287;28;20394;-77
2022/06/11 08:44:10;;;;;;;;;;;28.20;76.90;;;;;;5071087;28;19908;-76
2022/06/11 08:46:37;;;;;;;;;;;29.30;70.20;;;;;;5071609;28;19908;-77
2022/06/11 08:49:10;;;;;;;;;;;29.60;67.90;;;;;;5073568;28;20342;-77
2022/06/11 08:51:51;;;;;;;;;;;28.80;70.20;;;;;;5082116;28;19915;-77
2022/06/11 08:54:19;;;;;;;;;;;28.60;69.70;;;;;;5070964;28;19908;-76
2022/06/11 08:57:00;;;;;;;;;;;28.70;66.00;;;;;;5071481;28;20357;-76
2022/06/11 08:59:26;;;;;;;;;;;27.60;65.80;;;;;;5085411;28;20280;-76
2022/06/11 09:02:09;;;;;;;;;;;28.60;65.30;;;;;;5090386;28;19908;-76
2022/06/11 09:04:55;;;;;;;;;;;27.60;67.50;;;;;;5090011;28;20250;-76
2022/06/11 09:07:21;;;;;;;;;;;28.10;64.70;;;;;;5048602;28;19911;-76
2022/06/11 09:09:54;;;;;;;;;;;27.50;71.00;;;;;;5090748;28;19944;-76
2022/06/11 09:12:20;;;;;;;;;;;28.10;63.70;;;;;;5090370;28;20273;-76
2022/06/11 09:14:54;;;;;;;;;;;27.10;64.40;;;;;;5090129;28;19990;-77
2022/06/11 09:17:25;;;;;;;;;;;27.80;71.80;;;;;;5088697;28;19912;-76
2022/06/11 09:19:50;;;;;;;;;;;26.90;60.80;;;;;;5077438;28;19939;-76
2022/06/11 09:22:28;;;;;;;;;;;27.40;67.90;;;;;;5070825;28;19916;-77
2022/06/11 09:24:59;;;;;;;;;;;28.50;66.60;;;;;;5070707;28;19909;-76
2022/06/11 09:27:28;;;;;;;;;;;28.20;68.70;;;;;;5071311;28;20460;-76
2022/06/11 09:29:58;;;;;;;;;;;29.00;68.20;;;;;;5071706;28;20348;-76
2022/06/11 09:32:26;;;;;;;;;;;28.20;64.20;;;;;;5070806;28;19919;-76
2022/06/11 09:34:53;;;;;;;;;;;28.10;62.70;;;;;;5070182;28;19995;-77
2022/06/11 09:37:21;;;;;;;;;;;28.70;67.90;;;;;;5071428;28;19924;-77
2022/06/11 09:39:52;;;;;;;;;;;29.30;69.50;;;;;;5071262;28;19961;-77
2022/06/11 09:42:36;;;;;;;;;;;29.70;70.70;;;;;;5071143;28;19908;-77
2022/06/11 09:45:08;;;;;;;;;;;30.10;67.10;;;;;;5070582;28;19962;-77
2022/06/11 09:47:53;;;;;;;;;;;30.00;65.50;;;;;;5079899;28;19913;-77
2022/06/11 09:50:21;;;;;;;;;;;30.30;68.00;;;;;;5078646;28;19908;-77
2022/06/11 09:52:47;;;;;;;;;;;29.90;65.10;;;;;;5075228;28;20265;-77
2022/06/11 09:55:21;;;;;;;;;;;28.80;66.20;;;;;;5070620;28;19999;-77
2022/06/11 09:57:55;;;;;;;;;;;29.80;68.20;;;;;;5070249;28;20385;-77
2022/06/11 10:00:29;;;;;;;;;;;30.40;61.20;;;;;;5071044;28;20003;-76
2022/06/11 10:03:36;;;;;;;;;;;28.00;58.60;;;;;;5070517;28;19915;-77
2022/06/11 10:06:02;;;;;;;;;;;28.90;66.80;;;;;;5086532;28;19908;-77
2022/06/11 10:08:37;;;;;;;;;;;28.50;58.80;;;;;;5090443;28;19912;-77
2022/06/11 10:11:04;;;;;;;;;;;29.50;62.40;;;;;;5093088;28;19912;-76
2022/06/11 10:13:30;;;;;;;;;;;29.80;61.00;;;;;;5093526;28;19908;-77
2022/06/11 10:15:55;;;;;;;;;;;30.10;69.90;;;;;;5096098;28;19919;-77
2022/06/11 10:18:25;;;;;;;;;;;30.60;55.70;;;;;;5085354;28;19947;-77
2022/06/11 10:20:58;;;;;;;;;;;30.40;66.30;;;;;;5080283;28;20354;-77
2022/06/11 10:23:45;;;;;;;;;;;30.40;59.90;;;;;;5073866;28;20424;-77
2022/06/11 10:26:29;;;;;;;;;;;29.70;56.60;;;;;;5088653;28;19951;-77
2022/06/11 10:29:03;;;;;;;;;;;30.20;62.70;;;;;;5093768;28;19908;-76
2022/06/11 10:31:34;;;;;;;;;;;29.60;64.80;;;;;;5092667;28;21696;-77
2022/06/11 10:34:10;;;;;;;;;;;29.00;58.20;;;;;;5091410;28;20380;-77
2022/06/11 10:36:45;;;;;;;;;;;28.20;59.60;;;;;;5093534;28;19912;-76
2022/06/11 10:39:12;;;;;;;;;;;27.40;59.90;;;;;;5092495;28;20381;-77
2022/06/11 10:41:38;;;;;;;;;;;28.30;62.70;;;;;;5074210;28;19912;-77
2022/06/11 10:44:11;;;;;;;;;;;29.00;61.40;;;;;;5073642;28;19908;-77
2022/06/11 10:46:37;;;;;;;;;;;29.40;61.70;;;;;;5087230;28;19908;-77
2022/06/11 10:49:03;;;;;;;;;;;27.70;66.30;;;;;;5084040;28;20281;-77
2022/06/11 10:51:31;;;;;;;;;;;27.30;60.90;;;;;;5074779;28;19916;-77
2022/06/11 10:54:29;;;;;;;;;;;26.60;66.00;;;;;;5078697;28;19918;-77
2022/06/11 10:57:03;;;;;;;;;;;26.30;62.60;;;;;;5050651;28;19920;-77
2022/06/11 10:59:32;;;;;;;;;;;26.40;65.90;;;;;;5075824;28;19908;-77
2022/06/11 11:02:16;;;;;;;;;;;28.70;66.10;;;;;;5074561;28;20356;-78
2022/06/11 11:04:53;;;;;;;;;;;29.50;63.20;;;;;;5089243;28;20376;-77
2022/06/11 11:07:24;;;;;;;;;;;29.10;63.30;;;;;;5094052;28;19995;-77
2022/06/11 11:09:49;;;;;;;;;;;28.30;67.00;;;;;;5094995;28;19916;-78
2022/06/11 11:12:24;;;;;;;;;;;29.00;62.10;;;;;;5092986;28;19913;-76
2022/06/11 11:15:16;;;;;;;;;;;28.40;65.30;;;;;;5093066;28;19915;-77
2022/06/11 11:17:46;;;;;;;;;;;28.20;64.10;;;;;;5086103;28;19939;-76
2022/06/11 11:20:29;;;;;;;;;;;27.70;60.00;;;;;;5089134;28;20266;-77
2022/06/11 11:22:57;;;;;;;;;;;28.90;63.30;;;;;;5073679;28;19920;-77
2022/06/11 11:25:28;;;;;;;;;;;29.70;62.20;;;;;;5076037;28;19916;-77
2022/06/11 11:27:53;;;;;;;;;;;29.30;57.80;;;;;;5075228;28;20034;-76
2022/06/11 11:30:28;;;;;;;;;;;29.50;64.90;;;;;;5074708;28;20507;-78
2022/06/11 11:32:53;;;;;;;;;;;30.10;63.60;;;;;;5072163;28;19961;-77
2022/06/11 11:35:24;;;;;;;;;;;30.10;61.90;;;;;;5074002;28;19991;-77
2022/06/11 11:37:58;;;;;;;;;;;29.60;60.40;;;;;;5073691;28;19967;-77
2022/06/11 11:40:23;;;;;;;;;;;29.50;59.40;;;;;;5073662;28;20025;-77
2022/06/11 11:42:51;;;;;;;;;;;27.70;58.40;;;;;;5073348;28;20405;-77
2022/06/11 11:45:23;;;;;;;;;;;28.80;67.50;;;;;;5090538;28;19961;-77
2022/06/11 11:47:49;;;;;;;;;;;29.00;57.90;;;;;;5088287;28;19909;-77
2022/06/11 11:50:19;;;;;;;;;;;28.90;61.00;;;;;;5079387;28;19908;-77
2022/06/11 11:52:50;;;;;;;;;;;28.60;59.90;;;;;;5072152;28;19923;-77
2022/06/11 11:55:18;;;;;;;;;;;29.80;57.00;;;;;;5092643;28;19912;-77
2022/06/11 11:57:49;;;;;;;;;;;29.40;62.80;;;;;;5086662;28;19912;-78
2022/06/11 12:00:31;;;;;;;;;;;29.20;66.50;;;;;;5091840;28;20422;-76
2022/06/11 12:03:02;;;;;;;;;;;30.10;65.30;;;;;;5092781;28;20353;-76
2022/06/11 12:05:30;;;;;;;;;;;29.70;58.70;;;;;;5092205;28;19917;-78
2022/06/11 12:07:57;;;;;;;;;;;29.70;57.80;;;;;;5093077;28;20289;-78
2022/06/11 12:10:26;;;;;;;;;;;29.90;63.40;;;;;;5093122;28;19916;-78
2022/06/11 12:12:52;;;;;;;;;;;30.00;59.40;;;;;;5093803;28;19962;-77
2022/06/11 12:15:29;;;;;;;;;;;29.80;57.90;;;;;;5092620;28;19912;-76
2022/06/11 12:18:01;;;;;;;;;;;29.90;56.80;;;;;;5087882;28;19913;-78
2022/06/11 12:20:47;;;;;;;;;;;29.50;57.60;;;;;;5082223;28;19908;-78
2022/06/11 12:23:19;;;;;;;;;;;30.40;65.40;;;;;;5086731;28;19943;-78
2022/06/11 12:25:47;;;;;;;;;;;29.50;57.00;;;;;;5091295;28;19908;-75
2022/06/11 12:28:14;;;;;;;;;;;31.20;60.80;;;;;;5091305;28;19912;-76
2022/06/11 12:30:40;;;;;;;;;;;32.00;55.70;;;;;;5091467;28;19908;-76
2022/06/11 12:33:10;;;;;;;;;;;33.00;51.60;;;;;;5090299;28;20333;-77
2022/06/11 12:35:41;;;;;;;;;;;33.70;50.70;;;;;;5092046;28;19908;-77
2022/06/11 12:38:26;;;;;;;;;;;33.10;53.30;;;;;;5093649;28;20008;-78
2022/06/11 12:40:55;;;;;;;;;;;34.80;48.90;;;;;;5076148;28;19955;-77
2022/06/11 12:43:40;;;;;;;;;;;33.60;49.30;;;;;;5090560;28;20297;-77
2022/06/11 12:46:08;;;;;;;;;;;34.90;45.90;;;;;;5092548;28;19950;-80
2022/06/11 12:48:47;;;;;;;;;;;35.00;46.40;;;;;;5078881;28;20281;-77
2022/06/11 12:51:22;;;;;;;;;;;34.80;44.90;;;;;;5078297;28;20238;-77
2022/06/11 12:53:54;;;;;;;;;;;35.00;47.20;;;;;;5071219;28;19908;-77
2022/06/11 12:56:19;;;;;;;;;;;35.50;51.70;;;;;;5070447;28;20367;-77
2022/06/11 12:59:00;;;;;;;;;;;35.60;44.70;;;;;;5081235;28;19970;-76
2022/06/11 13:01:41;;;;;;;;;;;33.40;46.20;;;;;;5090389;28;19923;-77
2022/06/11 13:04:06;;;;;;;;;;;33.40;57.10;;;;;;5088603;28;20365;-77
2022/06/11 13:06:45;;;;;;;;;;;35.60;47.30;;;;;;5089544;28;19918;-77
2022/06/11 13:09:11;;;;;;;;;;;36.00;44.20;;;;;;5071532;28;20270;-77
2022/06/11 13:11:44;;;;;;;;;;;35.70;45.70;;;;;;5070857;28;19920;-77
2022/06/11 13:14:29;;;;;;;;;;;36.20;45.20;;;;;;5071149;28;19913;-78
2022/06/11 13:17:13;;;;;;;;;;;36.70;44.40;;;;;;5069832;28;19966;-77
2022/06/11 13:19:46;;;;;;;;;;;36.70;47.60;;;;;;5074375;28;19908;-77
2022/06/11 13:22:23;;;;;;;;;;;36.50;49.20;;;;;;5070968;28;19924;-77
2022/06/11 13:24:55;;;;;;;;;;;35.30;43.00;;;;;;5070921;28;19928;-77
2022/06/11 13:27:20;;;;;;;;;;;35.20;42.50;;;;;;5071586;28;19959;-78
2022/06/11 13:30:04;;;;;;;;;;;35.10;43.30;;;;;;5071524;28;19971;-78
2022/06/11 13:32:42;;;;;;;;;;;35.50;42.20;;;;;;5070931;28;19914;-78
2022/06/11 13:35:08;;;;;;;;;;;35.30;45.50;;;;;;5090184;28;20261;-77
2022/06/11 13:37:46;;;;;;;;;;;35.50;43.90;;;;;;5090904;28;19919;-78
2022/06/11 13:40:38;;;;;;;;;;;33.90;49.30;;;;;;5090976;28;20299;-77
2022/06/11 13:43:04;;;;;;;;;;;35.10;44.60;;;;;;5087073;28;20353;-77
2022/06/11 13:45:32;;;;;;;;;;;35.60;45.10;;;;;;5092415;28;19914;-78
2022/06/11 13:48:02;;;;;;;;;;;34.90;48.00;;;;;;5089808;28;19916;-77
2022/06/11 13:50:31;;;;;;;;;;;35.80;47.40;;;;;;5082085;28;19931;-77
2022/06/11 13:56:05;;;;;;;;;;;35.20;47.90;;;;;;5061582;28;19948;-78
2022/06/11 13:58:32;;;;;;;;;;;35.90;46.40;;;;;;5094444;28;19908;-78
2022/06/11 14:01:08;;;;;;;;;;;35.80;47.80;;;;;;5094428;28;20371;-77
2022/06/11 14:03:44;;;;;;;;;;;34.30;44.90;;;;;;5093810;28;19961;-77
2022/06/11 14:06:10;;;;;;;;;;;33.20;46.80;;;;;;5079368;28;19919;-78
2022/06/11 14:10:20;;;;;;;;;;;34.40;46.50;;;;;;5074910;28;19909;-77
2022/06/11 14:11:53;;;;;;;;;;;34.80;47.90;;;;;;5067279;28;20288;-77
2022/06/11 14:14:37;;;;;;;;;;;34.70;45.40;;;;;;5093508;28;19908;-77
2022/06/11 14:17:23;;;;;;;;;;;35.50;45.20;;;;;;5094078;28;19916;-77
2022/06/11 14:19:49;;;;;;;;;;;35.70;44.20;;;;;;5073406;28;19935;-77
2022/06/11 14:22:26;;;;;;;;;;;35.80;45.80;;;;;;5089754;28;19916;-78
2022/06/11 14:24:51;;;;;;;;;;;35.70;42.90;;;;;;5091954;28;19920;-77
2022/06/11 14:27:36;;;;;;;;;;;34.90;44.30;;;;;;5093945;28;19908;-78
2022/06/11 14:30:11;;;;;;;;;;;35.10;44.30;;;;;;5093940;28;19915;-77
2022/06/11 14:32:38;;;;;;;;;;;34.40;44.80;;;;;;5073994;28;19909;-77
2022/06/11 14:35:15;;;;;;;;;;;34.00;47.10;;;;;;5073371;28;19961;-77
2022/06/11 14:37:41;;;;;;;;;;;34.50;49.80;;;;;;5089582;28;20464;-77
2022/06/11 14:40:12;;;;;;;;;;;33.40;46.30;;;;;;5093662;28;20301;-76
2022/06/11 14:43:13;;;;;;;;;;;34.20;47.40;;;;;;5093133;28;20272;-77